| time (UTC) | temp F | wind direction | speed MPH | gust MPH | rain 1hr in | rain 24hr in | rain mn in | humidity % | barometer mb |
| 20260507113013 | 44 | 323 | 1.0 | 4.0 | 0.78 | 2.37 | 2.37 | 1 | 1015.4 |
| 20260507111512 | 42 | 353 | 0.0 | 1.0 | 1.14 | 2.17 | 2.17 | 1 | 1015.6 |
| 20260507110013 | 42 | 24 | 4.0 | 11.0 | 1.39 | 1.92 | 1.92 | 1 | 1015.5 |
| 20260507104513 | 43 | 30 | 2.0 | 9.0 | 1.39 | 1.71 | 1.71 | 1 | 1014.9 |
| 20260507103012 | 43 | 274 | 5.0 | 9.0 | 1.57 | 1.57 | 1.57 | 3 | 1015.5 |
| 20260507100012 | 49 | 107 | 2.0 | 2.0 | 0.54 | 0.54 | 0.54 | 47 | 1015.2 |
| 20260507093011 | 55 | 109 | 3.0 | 10.0 | 0.00 | 0.00 | 0.00 | 54 | 1015.2 |
| 20260507091511 | 54 | 107 | 6.0 | 11.0 | 0.00 | 0.00 | 0.00 | 51 | 1015.2 |
| 20260507090011 | 54 | 120 | 6.0 | 11.0 | 0.00 | 0.00 | 0.00 | 52 | 1015.3 |
| 20260507084511 | 55 | 132 | 7.0 | 13.0 | 0.00 | 0.00 | 0.00 | 54 | 1015.2 |
| 20260507083012 | 54 | 131 | 7.0 | 14.0 | 0.00 | 0.00 | 0.00 | 51 | 1015.2 |
| 20260507081511 | 53 | 130 | 7.0 | 17.0 | 0.00 | 0.00 | 0.00 | 39 | 1015.2 |
| 20260507080011 | 52 | 115 | 7.0 | 14.0 | 0.00 | 0.00 | 0.00 | 28 | 1015.0 |
| 20260507074511 | 52 | 118 | 7.0 | 15.0 | 0.00 | 0.00 | 0.00 | 26 | 1014.9 |
| 20260507071511 | 51 | 108 | 8.0 | 16.0 | 0.00 | 0.00 | 0.00 | 7 | 1014.7 |
| 20260507070013 | 51 | 105 | 6.0 | 13.0 | 0.00 | 0.00 | 0.00 | 1 | 1014.6 |
| 20260507064511 | 50 | 99 | 6.0 | 13.0 | 0.00 | 0.00 | 0.00 | 1 | 1014.4 |
| 20260507063012 | 49 | 100 | 4.0 | 10.0 | 0.00 | 0.00 | 0.00 | 1 | 1014.3 |
| 20260507061512 | 49 | 96 | 5.0 | 13.0 | 0.00 | 0.00 | 0.00 | 1 | 1014.0 |
| 20260507060011 | 49 | 98 | 4.0 | 10.0 | 0.00 | 0.00 | 0.00 | 1 | 1014.0 |
| 20260507054512 | 49 | 97 | 5.0 | 10.0 | 0.00 | 0.00 | 0.00 | 1 | 1013.8 |
| 20260507053012 | 49 | 96 | 4.0 | 10.0 | 0.00 | 0.00 | 0.00 | 1 | 1013.9 |
| 20260507051511 | 48 | 90 | 4.0 | 10.0 | 0.00 | 0.00 | 0.00 | 1 | 1013.7 |
| 20260507050011 | 48 | 90 | 5.0 | 11.0 | 0.00 | 0.00 | 0.00 | 1 | 1013.5 |
| 20260507044512 | 48 | 88 | 5.0 | 12.0 | 0.00 | 0.00 | 0.00 | 1 | 1013.5 |
| 20260507043011 | 48 | 87 | 5.0 | 15.0 | 0.00 | 0.00 | 0.00 | 1 | 1013.4 |
| 20260507040011 | 48 | 79 | 5.0 | 10.0 | 0.00 | 0.00 | 0.00 | 1 | 1013.3 |
| 20260507034511 | 48 | 82 | 4.0 | 11.0 | 0.00 | 0.00 | 0.00 | 1 | 1013.4 |
| 20260507033011 | 48 | 86 | 4.0 | 8.0 | 0.00 | 0.00 | 0.00 | 1 | 1013.5 |
| 20260507031512 | 48 | 84 | 5.0 | 13.0 | 0.00 | 0.00 | 0.00 | 1 | 1013.5 |
| 20260507030011 | 48 | 85 | 4.0 | 10.0 | 0.00 | 0.00 | 0.00 | 1 | 1013.5 |
| 20260507024512 | 48 | 89 | 4.0 | 10.0 | 0.00 | 0.00 | 0.00 | 1 | 1013.6 |
| 20260507023011 | 48 | 82 | 4.0 | 12.0 | 0.00 | 0.00 | 0.00 | 1 | 1013.5 |
| 20260507020011 | 48 | 90 | 4.0 | 8.0 | 0.00 | 0.00 | 0.00 | 1 | 1013.6 |
| 20260507014512 | 48 | 90 | 4.0 | 9.0 | 0.00 | 0.00 | 0.00 | 1 | 1013.6 |
| 20260507013011 | 48 | 89 | 4.0 | 8.0 | 0.00 | 0.00 | 0.00 | 1 | 1013.7 |
| 20260507010012 | 48 | 83 | 2.0 | 8.0 | 0.00 | 0.00 | 0.00 | 1 | 1013.9 |
| 20260507004511 | 49 | 105 | 4.0 | 6.0 | 0.00 | 0.00 | 0.00 | 1 | 1013.9 |
| 20260507003012 | 49 | 109 | 4.0 | 8.0 | 0.00 | 0.00 | 0.00 | 1 | 1014.0 |
| 20260507001512 | 49 | 102 | 3.0 | 7.0 | 0.00 | 0.00 | 0.00 | 1 | 1013.9 |
| 20260507000011 | 49 | 107 | 3.0 | 6.0 | 0.00 | 0.00 | 0.00 | 1 | 1013.9 |
| 20260506233012 | 49 | 104 | 5.0 | 8.0 | 0.00 | 0.00 | 0.00 | 1 | 1013.8 |
| 20260506231511 | 50 | 99 | 3.0 | 7.0 | 0.00 | 0.00 | 0.00 | 1 | 1014.1 |
| 20260506223012 | 51 | 107 | 5.0 | 10.0 | 0.00 | 0.00 | 0.00 | 10 | 1013.9 |
| 20260506221512 | 52 | 107 | 7.0 | 13.0 | 0.00 | 0.00 | 0.00 | 18 | 1014.0 |
| 20260506220013 | 53 | 106 | 5.0 | 13.0 | 0.00 | 0.00 | 0.00 | 19 | 1014.0 |
| 20260506214512 | 53 | 103 | 6.0 | 12.0 | 0.00 | 0.00 | 0.00 | 17 | 1014.0 |
| 20260506213011 | 53 | 103 | 5.0 | 13.0 | 0.00 | 0.00 | 0.00 | 20 | 1013.9 |
| 20260506211511 | 54 | 106 | 6.0 | 12.0 | 0.00 | 0.00 | 0.00 | 27 | 1013.8 |
| 20260506210012 | 54 | 94 | 4.0 | 11.0 | 0.00 | 0.00 | 0.00 | 34 | 1013.8 |
| 20260506204511 | 55 | 100 | 3.0 | 8.0 | 0.00 | 0.00 | 0.00 | 37 | 1013.7 |
| 20260506203012 | 56 | 86 | 3.0 | 7.0 | 0.00 | 0.00 | 0.00 | 47 | 1013.5 |
| 20260506201512 | 57 | 81 | 3.0 | 8.0 | 0.00 | 0.00 | 0.00 | 60 | 1013.4 |
| 20260506200012 | 59 | 77 | 5.0 | 11.0 | 0.00 | 0.00 | 0.00 | 53 | 1013.4 |
| 20260506194511 | 59 | 66 | 4.0 | 10.0 | 0.00 | 0.00 | 0.00 | 45 | 1013.0 |
| 20260506193011 | 60 | 67 | 5.0 | 12.0 | 0.00 | 0.00 | 0.00 | 45 | 1013.0 |
| 20260506191512 | 60 | 66 | 5.0 | 10.0 | 0.00 | 0.00 | 0.00 | 45 | 1013.0 |
| 20260506190011 | 61 | 71 | 4.0 | 10.0 | 0.00 | 0.00 | 0.00 | 43 | 1012.9 |
| 20260506184512 | 62 | 72 | 4.0 | 9.0 | 0.00 | 0.00 | 0.00 | 41 | 1013.0 |
| 20260506183012 | 62 | 67 | 5.0 | 10.0 | 0.00 | 0.00 | 0.00 | 41 | 1012.9 |
| 20260506181512 | 63 | 66 | 5.0 | 9.0 | 0.00 | 0.00 | 0.00 | 39 | 1012.9 |
| 20260506180011 | 64 | 68 | 4.0 | 9.0 | 0.00 | 0.00 | 0.00 | 37 | 1013.0 |
| 20260506174512 | 64 | 44 | 5.0 | 9.0 | 0.00 | 0.00 | 0.00 | 36 | 1012.9 |
| 20260506173012 | 64 | 43 | 6.0 | 12.0 | 0.00 | 0.00 | 0.00 | 36 | 1012.9 |
| 20260506171512 | 65 | 359 | 2.0 | 7.0 | 0.00 | 0.00 | 0.00 | 33 | 1013.0 |
| 20260506170011 | 66 | 214 | 2.0 | 7.0 | 0.00 | 0.00 | 0.00 | 25 | 1013.1 |
| 20260506164512 | 65 | 250 | 4.0 | 7.0 | 0.00 | 0.00 | 0.00 | 26 | 1013.1 |
| 20260506163011 | 67 | 151 | 5.0 | 9.0 | 0.00 | 0.00 | 0.00 | 23 | 1013.1 |
| 20260506161512 | 67 | 205 | 2.0 | 17.0 | 0.00 | 0.00 | 0.00 | 23 | 1013.0 |
| 20260506160012 | 67 | 169 | 2.0 | 7.0 | 0.00 | 0.00 | 0.00 | 20 | 1013.1 |
| 20260506154511 | 67 | 216 | 4.0 | 10.0 | 0.00 | 0.00 | 0.00 | 21 | 1013.3 |
| 20260506153012 | 67 | 116 | 6.0 | 13.0 | 0.00 | 0.00 | 0.00 | 20 | 1013.3 |
| 20260506150011 | 67 | 127 | 2.0 | 9.0 | 0.00 | 0.00 | 0.00 | 21 | 1013.4 |
| 20260506144511 | 67 | 158 | 3.0 | 8.0 | 0.00 | 0.00 | 0.00 | 22 | 1013.6 |
| 20260506143012 | 67 | 31 | 2.0 | 6.0 | 0.00 | 0.00 | 0.00 | 23 | 1013.7 |
| 20260506141512 | 66 | 192 | 3.0 | 6.0 | 0.00 | 0.00 | 0.00 | 23 | 1013.9 |
| 20260506134512 | 65 | 217 | 4.0 | 12.0 | 0.00 | 0.00 | 0.00 | 27 | 1014.2 |
| 20260506133012 | 65 | 234 | 4.0 | 14.0 | 0.00 | 0.00 | 0.00 | 26 | 1014.3 |
| 20260506131512 | 65 | 192 | 4.0 | 11.0 | 0.00 | 0.00 | 0.00 | 25 | 1014.3 |
| 20260506130012 | 64 | 258 | 2.0 | 5.0 | 0.00 | 0.00 | 0.00 | 24 | 1014.5 |
| 20260506124512 | 64 | 163 | 4.0 | 22.0 | 0.00 | 0.00 | 0.00 | 27 | 1014.7 |
| 20260506123012 | 63 | 221 | 4.0 | 9.0 | 0.00 | 0.00 | 0.00 | 30 | 1014.7 |
| 20260506121512 | 62 | 234 | 3.0 | 10.0 | 0.00 | 0.00 | 0.00 | 33 | 1015.0 |
| 20260506120012 | 62 | 203 | 3.0 | 14.0 | 0.00 | 0.00 | 0.00 | 33 | 1014.9 |